Uppdatera informationen genom att klicka på tidkoden mellan uppdateringssymbolerna i översta svarta fältet.
Tidkoden visar när senaste uppdateringen av sidan gjordes i zulutid.
FJAR - METAR (ingen TAF tillgänglig)
    00  AUTO 21022G39KT 02/01 Q1010=
    10  AUTO 22023KT 02/01 Q1010=
072020Z AUTO 22022KT 02/01 Q1010=
    30  AUTO 21023KT 02/01 Q1010=
    40  AUTO 22020KT 02/01 Q1010=
072050Z AUTO 22022G32KT 02/01 Q1010=
    00  AUTO 21022G35KT 02/01 Q1010=
    10  AUTO 22021KT 02/01 Q1010=
072120Z AUTO 22022G32KT 02/01 Q1010=
    30  AUTO 22023G35KT 02/01 Q1010=
    40  AUTO 23019KT 02/01 Q1009=
Vind Fjärås 23:43 lokal tid (100%,100%)

  2 minuter: medel 220° 22kt, byar 28kt
      08/26  sidvind    13kt, byar 17kt

 10 minuter: medel 230° 19kt, byar 28kt
             var   220°-240°
FORL - METAR (ingen TAF tillgänglig)
    00  AUTO 20018G29KT 13/12 Q1019=
    10  AUTO 19019G31KT 13/11 Q1019=
072020Z AUTO 21015KT 180V260 14/12 Q1019=
    30  AUTO 19017G31KT 170V240 14/12 Q1019=
    40  AUTO 19017KT 14/11 Q1019=
072050Z AUTO 18016KT 150V240 14/12 Q1018=
    00  AUTO 20014KT 14/12 Q1019=
    10  AUTO 20015KT 160V240 14/12 Q1018=
072120Z AUTO 17016KT 14/12 Q1018=
    30  AUTO 19016KT 160V220 14/12 Q1018=
    40  AUTO 19015G29KT 150V220 14/12 Q1018=
Vind Förlanda 23:43 lokal tid (100%,100%)

  2 minuter: medel 180° 15kt, byar 20kt
      06/24  sidvind    13kt, byar 17kt

 10 minuter: medel 180° 15kt, byar 24kt
             var   150°-220°
ESGP - METAR & TAF
071950Z 20018KT 9999 FEW015 BKN028 OVC042 14/11 Q1006=
072020Z AUTO 23010KT 9999 -RA FEW008/// SCT020/// OVC051/// 13/11 Q1006=
072050Z AUTO 22011KT 9999 FEW027/// SCT043/// BKN066/// 12/10 Q1006=
072120Z AUTO 21012KT 9999 -DZ SCT009/// BKN013/// BKN020/// 13/11 Q1005=
TAF ESGP 071730Z 0718/0721 20015G25KT 9999 SCT010 BKN030 TEMPO 0718/0721 20025G36KT SHRA BKN009 BKN020CB=
ESGG - METAR & TAF
071950Z 21023KT 9999 BKN006 FEW014CB 12/11 Q1007=
072020Z 21022KT 9999 DZ BKN008 OVC013 12/11 Q1007=
072050Z 21019KT 4100 -RA FEW006 SCT012 BKN025 12/11 Q1006 REDZ=
072120Z 21020KT 9999 SCT010 BKN016 BKN021 12/10 Q1006=
TAF ESGG 072030Z 0721/0821 21020G30KT 9999 SCT008 BKN015 TEMPO 0721/0805 SHRA BKN006 BKN015CB BECMG 0800/0802 26009KT PROB40 0805/0818 SHRA BKN015CB=
ESMT - METAR & TAF
071950Z 22021KT 9999 FEW024/// SCT028/// 13/11 Q1011=
072020Z 22021KT 9999 SCT077/// 14/11 Q1011=
072050Z 22021KT 9999 FEW023/// OVC076/// 14/11 Q1011=
072120Z 21019KT 9999 FEW029/// BKN072/// 14/11 Q1010=
TAF ESMT 071414Z 0715/0719 20018KT 9999 BKN020 TEMPO 0715/0719 21020G30KT=
Aktuell SWC
Aktuell VFR-analys
VFR-prognos för morgondagen 06 UTC
Endast mellan 16 och 24
VFR-prognos för morgondagen 12 UTC
Endast mellan 16 och 24
Datakällor
Standard METAR & TAF
- Meteorologisk institutt, Norge
Icke standard METAR & TAF
- Säve: wx.awos.se
- Fjärås: metar.se
- Förlanda: metar.se
Grafik SWC & VFR-analys/prognos
- Luftfartsverket
Kontakt
Daniel Bengtsson - met@tulebo.se